Weather at Vilonia Airport

Public forecast

Using degrees Fahrenheit for public forecast. Weather courtesy of forecast.io.

Closest aviation weather report (METAR) to Vilonia Airport

Closest report is Little Rock Air Force Base, 12.3 nm (22.7 km) S. Retrieved 2021/06/13 17:56 UTC (6 minutes ago):

KLRF 131756Z AUTO 04004KT 10SM FEW041 FEW170 SCT200 33/22 A2997 RMK AO2 SLP148 T03310222 10335 20259 53001

Closest aviation forecast (TAF) to Vilonia Airport

Closest forecast is Little Rock Air Force Base, 12.3 nm (22.7 km) S. Retrieved 2021/06/13 15:42 UTC (2 hours ago):

TAF KLRF 131500Z 1315/1421 02012KT 9999 SCT035 QNH2988INS TX36/1320Z TN22/1411Z